Phoenix, AZ

9:21 PM MST on March 30, 2015 (GMT -0700)
Cheery Lynn Historical District | | Change Station
CLOSE
Current Station
Personal Weather Station
Location: Phoenix, AZ
Elevation: 1125 ft
Nearby Weather Stations

Elev 1125 ft 33.49 °N, 112.05 °W | Updated 21 seconds ago

Partly Cloudy
Partly Cloudy
77.4 °F
Feels Like 78 °F
N
0.0
Wind Variable Wind from West
Gusts 0.0 mph

Today
High -- | Low -- °F
--% Chance of Precip.
Yesterday
High -- | Low -- °F
Precip. -- in
6:18 AM 6:47 PM
Waxing Gibbous, 84% visible
Pressure 29.85 in
Visibility 10.0 miles
Clouds Few 21000 ft
Scattered Clouds 25000 ft
Heat Index 78 °F
Dew Point 41 °F
Humidity 27%
Rainfall 0.00 in
Snow Depth Not available.
UV 0 out of 12
Pollen 11.80 out of 12
Air Quality Not available.
Flu Activity Not available.
METAR KPHX 310351Z 00000KT 10SM FEW210 SCT250 29/M01 A2989 RMK AO2 SLP106 T02891006

More Conditions Fewer Conditions

Pressure 29.85 in
Visibility 10.0 miles
Clouds Few 21000 ft
Scattered Clouds 25000 ft
Heat Index 78 °F
Dew Point 41 °F
Humidity 27%
Rainfall 0.00 in
Snow Depth Not available.
UV 0 out of 12
Pollen 11.80 out of 12
Air Quality Not available.
Flu Activity Not available.
METAR KPHX 310351Z 00000KT 10SM FEW210 SCT250 29/M01 A2989 RMK AO2 SLP106 T02891006

More Conditions Fewer Conditions

10-Day Weather Forecast

Almanac

Astronomy

Mar. 30, 2015 Rise Set
Actual Time
Civil Twilight
Nautical Twilight
Astronomical Twilight
Moon
Length of Visible Light
Length of Day
Tomorrow will be .
, % of the Moon is Illuminated

Today's Extremes

State Highs State Lows

Community

WunderPhotos

Upload Photos

1,809,720 photos uploaded!

WunderBlogs® & News

Nearby

Air Quality

  Air Quality AQ Index Pollutant
Not available.

Snow Depth

Station Depth Elevation

Earthquake Activity

City Distance Mag. Time & Date
Minimum magnitude displayed is 2.5.

Coastal Water Temperatures

Place Temperature

Stations

Nearby Weather Stations

Station Location Temp. Windchill Dew Point Humidity Wind Precip. Elev Updated Type